sensor_id;sensor_type;location;lat;lon;timestamp;temperature;humidity
23556;DHT22;11956;53.184;8.578;2023-02-08T00:03:00;-2.50;99.90
23556;DHT22;11956;53.184;8.578;2023-02-08T00:06:01;-2.50;99.90
23556;DHT22;11956;53.184;8.578;2023-02-08T00:09:03;-2.50;99.90
23556;DHT22;11956;53.184;8.578;2023-02-08T00:12:03;-2.50;99.90
23556;DHT22;11956;53.184;8.578;2023-02-08T00:15:05;-2.50;99.90
23556;DHT22;11956;53.184;8.578;2023-02-08T00:18:06;-2.50;99.90
23556;DHT22;11956;53.184;8.578;2023-02-08T00:21:11;-2.60;99.90
23556;DHT22;11956;53.184;8.578;2023-02-08T00:24:14;-2.60;99.90
23556;DHT22;11956;53.184;8.578;2023-02-08T00:27:15;-2.70;99.90
23556;DHT22;11956;53.184;8.578;2023-02-08T00:30:17;-2.70;99.90
23556;DHT22;11956;53.184;8.578;2023-02-08T00:33:18;-2.70;99.90
23556;DHT22;11956;53.184;8.578;2023-02-08T00:36:18;-2.70;99.90
23556;DHT22;11956;53.184;8.578;2023-02-08T00:39:19;-2.70;99.90
23556;DHT22;11956;53.184;8.578;2023-02-08T00:42:20;-2.70;99.90
23556;DHT22;11956;53.184;8.578;2023-02-08T00:45:21;-2.70;99.90
23556;DHT22;11956;53.184;8.578;2023-02-08T00:48:23;-2.70;99.90
23556;DHT22;11956;53.184;8.578;2023-02-08T00:51:25;-2.80;99.90
23556;DHT22;11956;53.184;8.578;2023-02-08T00:54:26;-2.70;99.90
23556;DHT22;11956;53.184;8.578;2023-02-08T00:57:27;-2.80;99.90
23556;DHT22;11956;53.184;8.578;2023-02-08T01:00:28;-2.80;99.90
23556;DHT22;11956;53.184;8.578;2023-02-08T01:03:28;-2.80;99.90
23556;DHT22;11956;53.184;8.578;2023-02-08T01:06:29;-2.80;99.90
23556;DHT22;11956;53.184;8.578;2023-02-08T01:09:31;-2.80;99.90
23556;DHT22;11956;53.184;8.578;2023-02-08T01:12:32;-2.90;99.90
23556;DHT22;11956;53.184;8.578;2023-02-08T01:15:33;-2.90;99.90
23556;DHT22;11956;53.184;8.578;2023-02-08T01:18:35;-2.90;99.90
23556;DHT22;11956;53.184;8.578;2023-02-08T01:21:38;-2.90;99.90
23556;DHT22;11956;53.184;8.578;2023-02-08T01:24:39;-2.90;99.90
23556;DHT22;11956;53.184;8.578;2023-02-08T01:27:40;-2.90;99.90
23556;DHT22;11956;53.184;8.578;2023-02-08T01:30:41;-2.90;99.90
23556;DHT22;11956;53.184;8.578;2023-02-08T01:33:43;-2.90;99.90
23556;DHT22;11956;53.184;8.578;2023-02-08T01:36:44;-2.90;99.90
23556;DHT22;11956;53.184;8.578;2023-02-08T01:39:45;-2.90;99.90
23556;DHT22;11956;53.184;8.578;2023-02-08T01:42:46;-3.00;99.90
23556;DHT22;11956;53.184;8.578;2023-02-08T01:45:47;-3.10;99.90
23556;DHT22;11956;53.184;8.578;2023-02-08T01:48:48;-3.00;99.90
23556;DHT22;11956;53.184;8.578;2023-02-08T01:52:04;-3.10;99.90
23556;DHT22;11956;53.184;8.578;2023-02-08T01:55:13;-3.00;99.90
23556;DHT22;11956;53.184;8.578;2023-02-08T01:58:16;-3.00;99.90
23556;DHT22;11956;53.184;8.578;2023-02-08T02:01:18;-3.10;99.90
23556;DHT22;11956;53.184;8.578;2023-02-08T02:04:19;-3.10;99.90
23556;DHT22;11956;53.184;8.578;2023-02-08T02:07:21;-3.10;99.90
23556;DHT22;11956;53.184;8.578;2023-02-08T02:10:29;-3.10;99.90
23556;DHT22;11956;53.184;8.578;2023-02-08T02:13:32;-3.20;99.90
23556;DHT22;11956;53.184;8.578;2023-02-08T02:16:33;-3.20;99.90
23556;DHT22;11956;53.184;8.578;2023-02-08T02:20:09;-3.20;99.90
23556;DHT22;11956;53.184;8.578;2023-02-08T02:27:28;-3.20;99.90
23556;DHT22;11956;53.184;8.578;2023-02-08T02:34:39;-3.30;99.90
23556;DHT22;11956;53.184;8.578;2023-02-08T02:48:21;-3.30;99.90
23556;DHT22;11956;53.184;8.578;2023-02-08T02:51:50;-3.30;99.90
23556;DHT22;11956;53.184;8.578;2023-02-08T02:55:00;-3.30;99.90
23556;DHT22;11956;53.184;8.578;2023-02-08T02:58:05;-3.30;99.90
23556;DHT22;11956;53.184;8.578;2023-02-08T03:01:07;-3.30;99.90
23556;DHT22;11956;53.184;8.578;2023-02-08T03:04:16;-3.30;99.90
23556;DHT22;11956;53.184;8.578;2023-02-08T03:10:34;-3.40;99.90
23556;DHT22;11956;53.184;8.578;2023-02-08T03:17:18;-3.40;99.90
23556;DHT22;11956;53.184;8.578;2023-02-08T03:20:31;-3.40;99.90
23556;DHT22;11956;53.184;8.578;2023-02-08T03:29:58;-3.50;99.90
23556;DHT22;11956;53.184;8.578;2023-02-08T03:33:10;-3.40;99.90
23556;DHT22;11956;53.184;8.578;2023-02-08T03:39:29;-3.50;99.90
23556;DHT22;11956;53.184;8.578;2023-02-08T03:42:32;-3.50;99.90
23556;DHT22;11956;53.184;8.578;2023-02-08T03:45:39;-3.50;99.90
23556;DHT22;11956;53.184;8.578;2023-02-08T03:48:53;-3.50;99.90
23556;DHT22;11956;53.184;8.578;2023-02-08T03:52:00;-3.50;99.90
23556;DHT22;11956;53.184;8.578;2023-02-08T03:55:13;-3.50;99.90
23556;DHT22;11956;53.184;8.578;2023-02-08T03:58:47;-3.50;99.90
23556;DHT22;11956;53.184;8.578;2023-02-08T04:02:01;-3.40;99.90
23556;DHT22;11956;53.184;8.578;2023-02-08T04:05:04;-3.50;99.90
23556;DHT22;11956;53.184;8.578;2023-02-08T04:08:06;-3.50;99.90
23556;DHT22;11956;53.184;8.578;2023-02-08T04:11:07;-3.50;99.90
23556;DHT22;11956;53.184;8.578;2023-02-08T04:14:08;-3.40;99.90
23556;DHT22;11956;53.184;8.578;2023-02-08T04:17:08;-3.30;99.90
23556;DHT22;11956;53.184;8.578;2023-02-08T04:20:10;-3.20;99.90
23556;DHT22;11956;53.184;8.578;2023-02-08T04:23:11;-3.20;99.90
23556;DHT22;11956;53.184;8.578;2023-02-08T04:26:12;-3.20;99.90
23556;DHT22;11956;53.184;8.578;2023-02-08T04:29:13;-3.10;99.90
23556;DHT22;11956;53.184;8.578;2023-02-08T04:32:13;-3.20;99.90
23556;DHT22;11956;53.184;8.578;2023-02-08T04:35:14;-3.20;99.90
23556;DHT22;11956;53.184;8.578;2023-02-08T04:38:15;-3.20;99.90
23556;DHT22;11956;53.184;8.578;2023-02-08T04:41:16;-3.30;99.90
23556;DHT22;11956;53.184;8.578;2023-02-08T04:44:17;-3.20;99.90
23556;DHT22;11956;53.184;8.578;2023-02-08T04:47:18;-3.20;99.90
23556;DHT22;11956;53.184;8.578;2023-02-08T04:50:18;-3.20;99.90
23556;DHT22;11956;53.184;8.578;2023-02-08T04:53:19;-3.10;99.90
23556;DHT22;11956;53.184;8.578;2023-02-08T04:56:21;-3.00;99.90
23556;DHT22;11956;53.184;8.578;2023-02-08T04:59:22;-2.90;99.90
23556;DHT22;11956;53.184;8.578;2023-02-08T05:02:23;-2.90;99.90
23556;DHT22;11956;53.184;8.578;2023-02-08T05:05:25;-2.90;99.90
23556;DHT22;11956;53.184;8.578;2023-02-08T05:08:27;-2.90;99.90
23556;DHT22;11956;53.184;8.578;2023-02-08T05:11:28;-2.90;99.90
23556;DHT22;11956;53.184;8.578;2023-02-08T05:14:29;-3.00;99.90
23556;DHT22;11956;53.184;8.578;2023-02-08T05:17:30;-3.00;99.90
23556;DHT22;11956;53.184;8.578;2023-02-08T05:20:31;-3.10;99.90
23556;DHT22;11956;53.184;8.578;2023-02-08T05:23:33;-3.00;99.90
23556;DHT22;11956;53.184;8.578;2023-02-08T05:26:34;-3.00;99.90
23556;DHT22;11956;53.184;8.578;2023-02-08T05:29:34;-2.90;99.90
23556;DHT22;11956;53.184;8.578;2023-02-08T05:32:35;-2.90;99.90
23556;DHT22;11956;53.184;8.578;2023-02-08T05:35:36;-2.90;99.90
23556;DHT22;11956;53.184;8.578;2023-02-08T05:38:37;-3.00;99.90
23556;DHT22;11956;53.184;8.578;2023-02-08T05:41:39;-2.90;99.90
23556;DHT22;11956;53.184;8.578;2023-02-08T05:44:40;-3.00;99.90
23556;DHT22;11956;53.184;8.578;2023-02-08T05:47:41;-3.00;99.90
23556;DHT22;11956;53.184;8.578;2023-02-08T05:50:42;-2.90;99.90
23556;DHT22;11956;53.184;8.578;2023-02-08T05:53:43;-2.90;99.90
23556;DHT22;11956;53.184;8.578;2023-02-08T05:56:44;-2.90;99.90
23556;DHT22;11956;53.184;8.578;2023-02-08T05:59:45;-2.90;99.90
23556;DHT22;11956;53.184;8.578;2023-02-08T06:02:46;-2.90;99.90
23556;DHT22;11956;53.184;8.578;2023-02-08T06:05:48;-2.80;99.90
23556;DHT22;11956;53.184;8.578;2023-02-08T06:08:49;-2.80;99.90
23556;DHT22;11956;53.184;8.578;2023-02-08T06:11:50;-2.70;99.90
23556;DHT22;11956;53.184;8.578;2023-02-08T06:14:51;-2.60;99.90
23556;DHT22;11956;53.184;8.578;2023-02-08T06:17:52;-2.60;99.90
23556;DHT22;11956;53.184;8.578;2023-02-08T06:20:53;-2.70;99.90
23556;DHT22;11956;53.184;8.578;2023-02-08T06:23:54;-2.70;99.90
23556;DHT22;11956;53.184;8.578;2023-02-08T06:26:56;-2.60;99.90
23556;DHT22;11956;53.184;8.578;2023-02-08T06:29:56;-2.70;99.90
23556;DHT22;11956;53.184;8.578;2023-02-08T06:32:57;-2.80;99.90
23556;DHT22;11956;53.184;8.578;2023-02-08T06:35:58;-2.80;99.90
23556;DHT22;11956;53.184;8.578;2023-02-08T06:38:59;-2.80;99.90
23556;DHT22;11956;53.184;8.578;2023-02-08T06:42:00;-2.80;99.90
23556;DHT22;11956;53.184;8.578;2023-02-08T06:45:01;-2.90;99.90
23556;DHT22;11956;53.184;8.578;2023-02-08T06:48:02;-2.90;99.90
23556;DHT22;11956;53.184;8.578;2023-02-08T06:51:03;-3.00;99.90
23556;DHT22;11956;53.184;8.578;2023-02-08T06:54:04;-3.00;99.90
23556;DHT22;11956;53.184;8.578;2023-02-08T06:57:05;-3.10;99.90
23556;DHT22;11956;53.184;8.578;2023-02-08T07:00:08;-3.00;99.90
23556;DHT22;11956;53.184;8.578;2023-02-08T07:03:10;-3.10;99.90
23556;DHT22;11956;53.184;8.578;2023-02-08T07:06:13;-3.10;99.90
23556;DHT22;11956;53.184;8.578;2023-02-08T07:09:15;-3.10;99.90
23556;DHT22;11956;53.184;8.578;2023-02-08T07:12:16;-3.20;99.90
23556;DHT22;11956;53.184;8.578;2023-02-08T07:15:17;-3.20;99.90
23556;DHT22;11956;53.184;8.578;2023-02-08T07:18:18;-3.20;99.90
23556;DHT22;11956;53.184;8.578;2023-02-08T07:21:19;-3.20;99.90
23556;DHT22;11956;53.184;8.578;2023-02-08T07:24:22;-3.10;99.90
23556;DHT22;11956;53.184;8.578;2023-02-08T07:27:23;-3.00;99.90
23556;DHT22;11956;53.184;8.578;2023-02-08T07:30:24;-2.80;99.90
23556;DHT22;11956;53.184;8.578;2023-02-08T07:33:25;-2.30;99.90
23556;DHT22;11956;53.184;8.578;2023-02-08T07:36:26;-1.60;99.90
23556;DHT22;11956;53.184;8.578;2023-02-08T07:39:27;-1.00;99.90
23556;DHT22;11956;53.184;8.578;2023-02-08T07:42:32;0.00;99.90
23556;DHT22;11956;53.184;8.578;2023-02-08T07:45:52;1.50;99.90
23556;DHT22;11956;53.184;8.578;2023-02-08T07:48:53;2.90;99.90
23556;DHT22;11956;53.184;8.578;2023-02-08T07:51:53;3.90;99.90
23556;DHT22;11956;53.184;8.578;2023-02-08T07:54:54;4.80;99.90
23556;DHT22;11956;53.184;8.578;2023-02-08T07:57:55;5.90;99.90
23556;DHT22;11956;53.184;8.578;2023-02-08T08:00:58;6.90;99.90
23556;DHT22;11956;53.184;8.578;2023-02-08T08:03:59;7.50;99.90
23556;DHT22;11956;53.184;8.578;2023-02-08T08:07:00;7.90;99.90
23556;DHT22;11956;53.184;8.578;2023-02-08T08:10:01;8.60;99.90
23556;DHT22;11956;53.184;8.578;2023-02-08T08:13:02;8.60;99.90
23556;DHT22;11956;53.184;8.578;2023-02-08T08:16:03;8.60;99.90
23556;DHT22;11956;53.184;8.578;2023-02-08T08:19:04;9.10;99.90
23556;DHT22;11956;53.184;8.578;2023-02-08T08:22:05;9.60;99.80
23556;DHT22;11956;53.184;8.578;2023-02-08T08:25:06;10.00;99.70
23556;DHT22;11956;53.184;8.578;2023-02-08T08:28:07;10.30;98.90
23556;DHT22;11956;53.184;8.578;2023-02-08T08:31:13;10.30;97.60
23556;DHT22;11956;53.184;8.578;2023-02-08T08:34:16;10.00;96.80
23556;DHT22;11956;53.184;8.578;2023-02-08T08:37:16;9.90;97.30
23556;DHT22;11956;53.184;8.578;2023-02-08T08:40:17;10.20;97.40
23556;DHT22;11956;53.184;8.578;2023-02-08T08:43:18;10.50;96.70
23556;DHT22;11956;53.184;8.578;2023-02-08T08:46:19;10.30;95.80
23556;DHT22;11956;53.184;8.578;2023-02-08T08:49:20;10.00;95.60
23556;DHT22;11956;53.184;8.578;2023-02-08T08:52:21;10.20;96.20
23556;DHT22;11956;53.184;8.578;2023-02-08T08:55:21;11.00;95.60
23556;DHT22;11956;53.184;8.578;2023-02-08T08:58:22;10.70;93.20
23556;DHT22;11956;53.184;8.578;2023-02-08T09:01:23;10.90;94.20
23556;DHT22;11956;53.184;8.578;2023-02-08T09:04:24;11.20;92.50
23556;DHT22;11956;53.184;8.578;2023-02-08T09:07:25;11.00;93.00
23556;DHT22;11956;53.184;8.578;2023-02-08T09:10:26;11.00;92.90
23556;DHT22;11956;53.184;8.578;2023-02-08T09:13:27;11.70;91.70
23556;DHT22;11956;53.184;8.578;2023-02-08T09:16:28;9.80;93.30
23556;DHT22;11956;53.184;8.578;2023-02-08T09:19:29;9.00;95.20
23556;DHT22;11956;53.184;8.578;2023-02-08T09:22:30;8.40;96.80
23556;DHT22;11956;53.184;8.578;2023-02-08T09:25:31;9.70;96.30
23556;DHT22;11956;53.184;8.578;2023-02-08T09:28:33;10.00;95.30
23556;DHT22;11956;53.184;8.578;2023-02-08T09:31:35;11.30;92.00
23556;DHT22;11956;53.184;8.578;2023-02-08T09:34:37;11.40;91.60
23556;DHT22;11956;53.184;8.578;2023-02-08T09:37:38;12.10;89.40
23556;DHT22;11956;53.184;8.578;2023-02-08T09:40:52;10.50;91.40
23556;DHT22;11956;53.184;8.578;2023-02-08T09:48:06;8.30;94.80
23556;DHT22;11956;53.184;8.578;2023-02-08T09:51:50;9.70;92.60
23556;DHT22;11956;53.184;8.578;2023-02-08T09:54:58;10.10;90.40
23556;DHT22;11956;53.184;8.578;2023-02-08T09:58:27;10.70;90.60
23556;DHT22;11956;53.184;8.578;2023-02-08T10:01:33;10.50;90.70
23556;DHT22;11956;53.184;8.578;2023-02-08T10:04:44;11.20;88.00
23556;DHT22;11956;53.184;8.578;2023-02-08T10:08:07;11.50;84.00
23556;DHT22;11956;53.184;8.578;2023-02-08T10:14:53;9.50;90.50
23556;DHT22;11956;53.184;8.578;2023-02-08T10:32:44;10.10;90.30
23556;DHT22;11956;53.184;8.578;2023-02-08T10:35:51;11.30;88.60
23556;DHT22;11956;53.184;8.578;2023-02-08T10:38:53;11.50;85.90
23556;DHT22;11956;53.184;8.578;2023-02-08T10:41:55;11.20;87.70
23556;DHT22;11956;53.184;8.578;2023-02-08T10:45:09;11.70;86.70
23556;DHT22;11956;53.184;8.578;2023-02-08T10:48:26;10.60;88.40
23556;DHT22;11956;53.184;8.578;2023-02-08T10:51:30;7.90;92.90
23556;DHT22;11956;53.184;8.578;2023-02-08T10:54:33;6.10;97.20
23556;DHT22;11956;53.184;8.578;2023-02-08T10:57:34;5.40;99.90
23556;DHT22;11956;53.184;8.578;2023-02-08T11:00:39;5.30;99.90
23556;DHT22;11956;53.184;8.578;2023-02-08T11:04:06;4.80;99.90
23556;DHT22;11956;53.184;8.578;2023-02-08T11:07:19;4.20;99.90
23556;DHT22;11956;53.184;8.578;2023-02-08T11:10:24;4.10;99.90
23556;DHT22;11956;53.184;8.578;2023-02-08T11:13:51;3.90;99.90
23556;DHT22;11956;53.184;8.578;2023-02-08T11:16:53;3.90;99.90
23556;DHT22;11956;53.184;8.578;2023-02-08T11:19:55;4.10;99.90
23556;DHT22;11956;53.184;8.578;2023-02-08T11:22:58;4.10;99.90
23556;DHT22;11956;53.184;8.578;2023-02-08T11:29:30;3.90;99.90
23556;DHT22;11956;53.184;8.578;2023-02-08T11:32:31;4.10;99.90
23556;DHT22;11956;53.184;8.578;2023-02-08T11:35:32;4.10;99.90
23556;DHT22;11956;53.184;8.578;2023-02-08T11:38:35;4.00;99.90
23556;DHT22;11956;53.184;8.578;2023-02-08T11:41:48;4.10;99.90
23556;DHT22;11956;53.184;8.578;2023-02-08T11:44:53;4.20;99.90
23556;DHT22;11956;53.184;8.578;2023-02-08T11:47:55;4.20;99.90
23556;DHT22;11956;53.184;8.578;2023-02-08T11:50:59;4.40;99.90
23556;DHT22;11956;53.184;8.578;2023-02-08T11:54:01;4.50;99.90
23556;DHT22;11956;53.184;8.578;2023-02-08T11:57:15;4.40;99.90
23556;DHT22;11956;53.184;8.578;2023-02-08T12:00:27;4.40;99.90
23556;DHT22;11956;53.184;8.578;2023-02-08T12:03:36;4.50;99.90
23556;DHT22;11956;53.184;8.578;2023-02-08T12:10:09;4.70;99.90
23556;DHT22;11956;53.184;8.578;2023-02-08T12:13:29;4.80;99.90
23556;DHT22;11956;53.184;8.578;2023-02-08T12:20:40;5.00;99.90
23556;DHT22;11956;53.184;8.578;2023-02-08T12:24:00;4.90;99.90
23556;DHT22;11956;53.184;8.578;2023-02-08T12:31:17;5.10;99.90
23556;DHT22;11956;53.184;8.578;2023-02-08T12:45:36;5.40;99.90
23556;DHT22;11956;53.184;8.578;2023-02-08T12:52:39;5.40;99.90
23556;DHT22;11956;53.184;8.578;2023-02-08T12:55:43;5.60;99.90
23556;DHT22;11956;53.184;8.578;2023-02-08T12:58:51;5.50;99.90
23556;DHT22;11956;53.184;8.578;2023-02-08T13:01:58;5.50;99.90
23556;DHT22;11956;53.184;8.578;2023-02-08T13:05:05;5.60;99.90
23556;DHT22;11956;53.184;8.578;2023-02-08T13:08:30;5.70;99.90
23556;DHT22;11956;53.184;8.578;2023-02-08T13:11:56;5.70;99.90
23556;DHT22;11956;53.184;8.578;2023-02-08T13:15:14;5.80;99.90
23556;DHT22;11956;53.184;8.578;2023-02-08T13:18:30;5.80;99.90
23556;DHT22;11956;53.184;8.578;2023-02-08T13:21:35;5.80;99.90
23556;DHT22;11956;53.184;8.578;2023-02-08T13:24:43;5.80;99.90
23556;DHT22;11956;53.184;8.578;2023-02-08T13:27:44;5.90;99.90
23556;DHT22;11956;53.184;8.578;2023-02-08T13:30:51;5.90;99.90
23556;DHT22;11956;53.184;8.578;2023-02-08T13:37:33;5.90;99.90
23556;DHT22;11956;53.184;8.578;2023-02-08T13:40:35;6.00;99.90
23556;DHT22;11956;53.184;8.578;2023-02-08T13:43:45;6.10;99.90
23556;DHT22;11956;53.184;8.578;2023-02-08T13:46:58;6.10;99.90
23556;DHT22;11956;53.184;8.578;2023-02-08T13:50:04;6.10;99.90
23556;DHT22;11956;53.184;8.578;2023-02-08T13:56:50;6.10;99.90
23556;DHT22;11956;53.184;8.578;2023-02-08T14:00:16;6.20;99.90
23556;DHT22;11956;53.184;8.578;2023-02-08T14:03:31;6.20;99.90
23556;DHT22;11956;53.184;8.578;2023-02-08T14:06:36;6.20;99.90
23556;DHT22;11956;53.184;8.578;2023-02-08T14:10:28;6.20;99.90
23556;DHT22;11956;53.184;8.578;2023-02-08T14:14:05;6.30;99.90
23556;DHT22;11956;53.184;8.578;2023-02-08T14:17:19;6.30;99.90
23556;DHT22;11956;53.184;8.578;2023-02-08T14:20:32;6.30;99.90
23556;DHT22;11956;53.184;8.578;2023-02-08T14:23:36;6.30;99.90
23556;DHT22;11956;53.184;8.578;2023-02-08T14:26:38;6.30;99.90
23556;DHT22;11956;53.184;8.578;2023-02-08T14:29:39;6.40;99.90
23556;DHT22;11956;53.184;8.578;2023-02-08T14:32:43;6.40;99.70
23556;DHT22;11956;53.184;8.578;2023-02-08T14:35:52;6.40;99.90
23556;DHT22;11956;53.184;8.578;2023-02-08T14:39:24;6.40;99.90
23556;DHT22;11956;53.184;8.578;2023-02-08T14:49:42;6.20;96.40
23556;DHT22;11956;53.184;8.578;2023-02-08T14:53:38;6.20;96.50
23556;DHT22;11956;53.184;8.578;2023-02-08T14:56:46;6.20;96.40
23556;DHT22;11956;53.184;8.578;2023-02-08T14:59:58;6.20;97.80
23556;DHT22;11956;53.184;8.578;2023-02-08T15:03:03;6.10;98.20
23556;DHT22;11956;53.184;8.578;2023-02-08T15:06:26;6.10;99.90
23556;DHT22;11956;53.184;8.578;2023-02-08T15:09:33;6.00;99.90
23556;DHT22;11956;53.184;8.578;2023-02-08T15:12:40;6.00;99.90
23556;DHT22;11956;53.184;8.578;2023-02-08T15:15:44;5.90;99.90
23556;DHT22;11956;53.184;8.578;2023-02-08T15:18:50;5.90;99.90
23556;DHT22;11956;53.184;8.578;2023-02-08T15:21:51;5.90;99.90
23556;DHT22;11956;53.184;8.578;2023-02-08T15:24:58;5.90;99.90
23556;DHT22;11956;53.184;8.578;2023-02-08T15:28:33;5.80;99.90
23556;DHT22;11956;53.184;8.578;2023-02-08T15:31:35;5.70;99.90
23556;DHT22;11956;53.184;8.578;2023-02-08T15:34:44;5.60;99.90
23556;DHT22;11956;53.184;8.578;2023-02-08T15:37:47;5.50;99.90
23556;DHT22;11956;53.184;8.578;2023-02-08T15:41:12;5.50;99.90
23556;DHT22;11956;53.184;8.578;2023-02-08T15:44:19;5.40;99.90
23556;DHT22;11956;53.184;8.578;2023-02-08T15:47:35;5.30;99.90
23556;DHT22;11956;53.184;8.578;2023-02-08T15:50:37;5.20;99.90
23556;DHT22;11956;53.184;8.578;2023-02-08T15:53:42;5.20;99.90
23556;DHT22;11956;53.184;8.578;2023-02-08T15:57:07;5.00;99.90
23556;DHT22;11956;53.184;8.578;2023-02-08T16:00:20;4.90;99.90
23556;DHT22;11956;53.184;8.578;2023-02-08T16:03:25;4.80;99.90
23556;DHT22;11956;53.184;8.578;2023-02-08T16:06:31;4.70;99.90
23556;DHT22;11956;53.184;8.578;2023-02-08T16:09:37;4.60;99.90
23556;DHT22;11956;53.184;8.578;2023-02-08T16:12:39;4.60;99.90
23556;DHT22;11956;53.184;8.578;2023-02-08T16:15:48;4.50;99.90
23556;DHT22;11956;53.184;8.578;2023-02-08T16:19:01;4.40;99.90
23556;DHT22;11956;53.184;8.578;2023-02-08T16:22:35;4.40;99.90
23556;DHT22;11956;53.184;8.578;2023-02-08T16:25:42;4.30;99.90
23556;DHT22;11956;53.184;8.578;2023-02-08T16:28:52;4.20;99.90
23556;DHT22;11956;53.184;8.578;2023-02-08T16:32:03;4.20;99.90
23556;DHT22;11956;53.184;8.578;2023-02-08T16:35:14;4.10;99.90
23556;DHT22;11956;53.184;8.578;2023-02-08T16:38:22;4.00;99.90
23556;DHT22;11956;53.184;8.578;2023-02-08T16:48:29;3.90;99.90
23556;DHT22;11956;53.184;8.578;2023-02-08T16:51:35;3.80;99.90
23556;DHT22;11956;53.184;8.578;2023-02-08T16:54:38;3.80;99.90
23556;DHT22;11956;53.184;8.578;2023-02-08T16:57:42;3.80;99.90
23556;DHT22;11956;53.184;8.578;2023-02-08T17:00:45;3.70;99.90
23556;DHT22;11956;53.184;8.578;2023-02-08T17:03:46;3.60;99.90
23556;DHT22;11956;53.184;8.578;2023-02-08T17:06:49;3.60;99.90
23556;DHT22;11956;53.184;8.578;2023-02-08T17:09:50;3.60;99.90
23556;DHT22;11956;53.184;8.578;2023-02-08T17:12:52;3.50;99.90
23556;DHT22;11956;53.184;8.578;2023-02-08T17:15:53;3.50;99.90
23556;DHT22;11956;53.184;8.578;2023-02-08T17:18:54;3.50;99.90
23556;DHT22;11956;53.184;8.578;2023-02-08T17:21:55;3.50;99.90
23556;DHT22;11956;53.184;8.578;2023-02-08T17:24:56;3.50;99.90
23556;DHT22;11956;53.184;8.578;2023-02-08T17:28:01;3.40;99.90
23556;DHT22;11956;53.184;8.578;2023-02-08T17:31:10;3.40;99.90
23556;DHT22;11956;53.184;8.578;2023-02-08T17:34:12;3.30;99.90
23556;DHT22;11956;53.184;8.578;2023-02-08T17:37:13;3.30;99.90
23556;DHT22;11956;53.184;8.578;2023-02-08T17:40:14;3.20;99.90
23556;DHT22;11956;53.184;8.578;2023-02-08T17:43:15;3.20;99.90
23556;DHT22;11956;53.184;8.578;2023-02-08T17:46:19;3.20;99.90
23556;DHT22;11956;53.184;8.578;2023-02-08T17:49:21;3.10;99.90
23556;DHT22;11956;53.184;8.578;2023-02-08T17:52:22;3.10;99.90
23556;DHT22;11956;53.184;8.578;2023-02-08T17:55:23;3.20;99.90
23556;DHT22;11956;53.184;8.578;2023-02-08T17:58:24;3.20;99.90
23556;DHT22;11956;53.184;8.578;2023-02-08T18:01:26;3.10;99.90
23556;DHT22;11956;53.184;8.578;2023-02-08T18:04:27;3.10;99.90
23556;DHT22;11956;53.184;8.578;2023-02-08T18:07:29;3.00;99.90
23556;DHT22;11956;53.184;8.578;2023-02-08T18:10:30;3.00;99.90
23556;DHT22;11956;53.184;8.578;2023-02-08T18:13:33;3.00;99.90
23556;DHT22;11956;53.184;8.578;2023-02-08T18:16:34;3.00;99.90
23556;DHT22;11956;53.184;8.578;2023-02-08T18:19:35;2.90;99.90
23556;DHT22;11956;53.184;8.578;2023-02-08T18:22:37;2.90;99.90
23556;DHT22;11956;53.184;8.578;2023-02-08T18:25:40;2.90;99.90
23556;DHT22;11956;53.184;8.578;2023-02-08T18:28:41;2.90;99.90
23556;DHT22;11956;53.184;8.578;2023-02-08T18:31:42;2.90;99.90
23556;DHT22;11956;53.184;8.578;2023-02-08T18:34:43;2.90;99.90
23556;DHT22;11956;53.184;8.578;2023-02-08T18:37:44;2.90;99.90
23556;DHT22;11956;53.184;8.578;2023-02-08T18:40:48;2.80;99.90
23556;DHT22;11956;53.184;8.578;2023-02-08T18:43:50;2.80;99.90
23556;DHT22;11956;53.184;8.578;2023-02-08T18:46:51;2.80;99.90
23556;DHT22;11956;53.184;8.578;2023-02-08T18:49:55;2.90;99.90
23556;DHT22;11956;53.184;8.578;2023-02-08T18:52:57;2.80;99.90
23556;DHT22;11956;53.184;8.578;2023-02-08T18:56:00;2.70;99.90
23556;DHT22;11956;53.184;8.578;2023-02-08T18:59:01;2.70;99.90
23556;DHT22;11956;53.184;8.578;2023-02-08T19:02:03;2.70;99.90
23556;DHT22;11956;53.184;8.578;2023-02-08T19:05:06;2.60;99.90
23556;DHT22;11956;53.184;8.578;2023-02-08T19:08:07;2.60;99.90
23556;DHT22;11956;53.184;8.578;2023-02-08T19:11:23;2.50;99.90
23556;DHT22;11956;53.184;8.578;2023-02-08T19:14:25;2.50;99.90
23556;DHT22;11956;53.184;8.578;2023-02-08T19:17:27;2.40;99.90
23556;DHT22;11956;53.184;8.578;2023-02-08T19:20:28;2.40;99.90
23556;DHT22;11956;53.184;8.578;2023-02-08T19:23:29;2.30;99.90
23556;DHT22;11956;53.184;8.578;2023-02-08T19:26:32;2.30;99.90
23556;DHT22;11956;53.184;8.578;2023-02-08T19:29:36;2.30;99.90
23556;DHT22;11956;53.184;8.578;2023-02-08T19:32:37;2.20;99.90
23556;DHT22;11956;53.184;8.578;2023-02-08T19:35:38;2.20;99.90
23556;DHT22;11956;53.184;8.578;2023-02-08T19:38:40;2.10;99.90
23556;DHT22;11956;53.184;8.578;2023-02-08T19:41:43;2.00;99.90
23556;DHT22;11956;53.184;8.578;2023-02-08T19:44:44;1.90;99.90
23556;DHT22;11956;53.184;8.578;2023-02-08T19:47:45;1.90;99.90
23556;DHT22;11956;53.184;8.578;2023-02-08T19:50:55;1.90;99.90
23556;DHT22;11956;53.184;8.578;2023-02-08T19:54:01;1.80;99.90
23556;DHT22;11956;53.184;8.578;2023-02-08T19:57:06;1.80;99.90
23556;DHT22;11956;53.184;8.578;2023-02-08T20:00:11;1.70;99.90
23556;DHT22;11956;53.184;8.578;2023-02-08T20:03:12;1.70;99.90
23556;DHT22;11956;53.184;8.578;2023-02-08T20:06:20;1.60;99.90
23556;DHT22;11956;53.184;8.578;2023-02-08T20:09:23;1.60;99.90
23556;DHT22;11956;53.184;8.578;2023-02-08T20:12:24;1.60;99.90
23556;DHT22;11956;53.184;8.578;2023-02-08T20:15:26;1.60;99.90
23556;DHT22;11956;53.184;8.578;2023-02-08T20:18:27;1.40;99.90
23556;DHT22;11956;53.184;8.578;2023-02-08T20:21:28;1.40;99.90
23556;DHT22;11956;53.184;8.578;2023-02-08T20:24:29;1.40;99.90
23556;DHT22;11956;53.184;8.578;2023-02-08T20:27:30;1.40;99.90
23556;DHT22;11956;53.184;8.578;2023-02-08T20:30:31;1.30;99.90
23556;DHT22;11956;53.184;8.578;2023-02-08T20:33:32;1.30;99.90
23556;DHT22;11956;53.184;8.578;2023-02-08T20:36:36;1.20;99.90
23556;DHT22;11956;53.184;8.578;2023-02-08T20:39:40;1.20;99.90
23556;DHT22;11956;53.184;8.578;2023-02-08T20:42:41;1.20;99.90
23556;DHT22;11956;53.184;8.578;2023-02-08T20:45:42;1.10;99.90
23556;DHT22;11956;53.184;8.578;2023-02-08T20:48:43;1.00;99.90
23556;DHT22;11956;53.184;8.578;2023-02-08T20:51:44;1.00;99.90
23556;DHT22;11956;53.184;8.578;2023-02-08T20:54:45;1.00;99.90
23556;DHT22;11956;53.184;8.578;2023-02-08T20:57:46;0.90;99.90
23556;DHT22;11956;53.184;8.578;2023-02-08T21:00:47;0.80;99.90
23556;DHT22;11956;53.184;8.578;2023-02-08T21:03:49;0.80;99.90
23556;DHT22;11956;53.184;8.578;2023-02-08T21:06:52;0.80;99.90
23556;DHT22;11956;53.184;8.578;2023-02-08T21:09:53;0.80;99.90
23556;DHT22;11956;53.184;8.578;2023-02-08T21:12:54;0.70;99.90
23556;DHT22;11956;53.184;8.578;2023-02-08T21:15:55;0.70;99.90
23556;DHT22;11956;53.184;8.578;2023-02-08T21:18:56;0.70;99.90
23556;DHT22;11956;53.184;8.578;2023-02-08T21:21:59;0.60;99.90
23556;DHT22;11956;53.184;8.578;2023-02-08T21:25:01;0.70;99.90
23556;DHT22;11956;53.184;8.578;2023-02-08T21:28:02;0.60;99.90
23556;DHT22;11956;53.184;8.578;2023-02-08T21:31:06;0.60;99.90